This is the latest recevied weather packets stored in our database for station/object IW1AXR-3. If no packets are shown the sender has not sent any weather packets the latest 10 day(s).
| Time | Temp. | Humidity | Pressure | Rain* | Wind** | Luminosity | Snow |
|---|---|---|---|---|---|---|---|
| 1777785669 | 10.56° C | 71% | 1017.8 hPa | - | - | - | - |
| 1777785064 | 10° C | 72% | 1017.9 hPa | - | - | - | - |
| 1777783845 | 10° C | 72% | 1017.9 hPa | - | - | - | - |
| 1777782620 | 10° C | 72% | 1017.8 hPa | - | - | - | - |
| 1777782010 | 9.44° C | 74% | 1017.8 hPa | - | - | - | - |
| 1777778952 | 10° C | 73% | 1018.1 hPa | - | - | - | - |
| 1777778346 | 10° C | 73% | 1018.2 hPa | - | - | - | - |
| 1777776508 | 10.56° C | 72% | 1018.2 hPa | - | - | - | - |
| 1777774725 | 10.56° C | 74% | 1018.5 hPa | - | - | - | - |
| 1777774677 | 10.56° C | 74% | 1018.5 hPa | - | - | - | - |
| 1777771620 | 10.56° C | 74% | 1018.7 hPa | - | - | - | - |
| 1777769175 | 10.56° C | 74% | 1018.8 hPa | - | - | - | - |
| 1777764949 | 11.11° C | 74% | 1019.5 hPa | - | - | - | - |
| 1777764346 | 10.56° C | 77% | 1019.6 hPa | - | - | - | - |
| 1777763742 | 11.11° C | 73% | 1019.7 hPa | - | - | - | - |
| 1777763138 | 11.11° C | 73% | 1019.8 hPa | - | - | - | - |
| 1777762535 | 11.11° C | 73% | 1019.8 hPa | - | - | - | - |
| 1777761932 | 11.67° C | 73% | 1019.9 hPa | - | - | - | - |
| 1777761328 | 11.67° C | 74% | 1019.8 hPa | - | - | - | - |
| 1777760725 | 11.67° C | 73% | 1019.8 hPa | - | - | - | - |
| 1777758311 | 11.67° C | 73% | 1019.9 hPa | - | - | - | - |
| 1777757708 | 11.67° C | 73% | 1019.8 hPa | - | - | - | - |
| 1777757104 | 11.67° C | 73% | 1019.8 hPa | - | - | - | - |
| 1777756500 | 12.22° C | 73% | 1019.8 hPa | - | - | - | - |
| 1777755294 | 12.22° C | 71% | 1019.9 hPa | - | - | - | - |
* Rain since midnight (hover to see other rain measurements)
** Current wind speed in m/s (hover to see current wind gust speed)